createdAt,value
2023-03-14T00:00:52.004Z,97204.25
2023-03-14T00:03:18.640Z,97217.19
2023-03-14T00:05:45.259Z,97222.06
2023-03-14T00:08:12.222Z,97239.00
2023-03-14T00:10:39.616Z,97220.91
2023-03-14T00:13:06.171Z,97226.56
2023-03-14T00:15:36.376Z,97230.91
2023-03-14T00:18:03.031Z,97234.72
2023-03-14T00:20:29.526Z,97233.91
2023-03-14T00:22:55.979Z,97244.69
2023-03-14T00:25:22.492Z,97237.59
2023-03-14T00:27:51.700Z,97234.38
2023-03-14T00:30:18.695Z,97214.25
2023-03-14T00:32:45.258Z,97201.63
2023-03-14T00:35:11.809Z,97195.94
2023-03-14T00:37:38.465Z,97196.22
2023-03-14T00:40:07.644Z,97186.53
2023-03-14T00:42:34.468Z,97190.09
2023-03-14T00:45:01.209Z,97187.88
2023-03-14T00:47:27.655Z,97201.09
2023-03-14T00:49:54.223Z,97205.91
2023-03-14T00:52:20.731Z,97209.16
2023-03-14T00:54:47.203Z,97214.31
2023-03-14T00:57:13.679Z,97227.19
2023-03-14T00:59:40.218Z,97228.56
2023-03-14T01:02:06.716Z,97231.28
2023-03-14T01:04:33.257Z,97235.84
2023-03-14T01:06:59.823Z,97233.94
2023-03-14T01:09:26.356Z,97242.53
2023-03-14T01:11:52.909Z,97236.94
2023-03-14T01:14:19.469Z,97229.91
2023-03-14T01:16:45.962Z,97230.53
2023-03-14T01:19:12.458Z,97224.88
2023-03-14T01:21:39.072Z,97221.16
2023-03-14T01:24:06.898Z,97205.81
2023-03-14T01:26:35.182Z,97201.78
2023-03-14T01:29:02.434Z,97203.44
2023-03-14T01:31:29.418Z,97207.16
2023-03-14T01:33:56.061Z,97198.03
2023-03-14T01:36:22.665Z,97207.16
2023-03-14T01:38:49.549Z,97191.28
2023-03-14T01:41:19.389Z,97196.41
2023-03-14T01:43:46.797Z,97199.88
2023-03-14T01:46:22.263Z,97191.56
2023-03-14T01:49:19.876Z,97188.88
2023-03-14T01:51:55.390Z,97199.41
2023-03-14T01:54:27.812Z,97199.66
2023-03-14T01:56:59.694Z,97181.94
2023-03-14T01:59:29.174Z,97177.13
2023-03-14T02:01:56.724Z,97171.72
2023-03-14T02:04:24.510Z,97172.31
2023-03-14T02:06:58.660Z,97180.03
2023-03-14T02:09:25.293Z,97175.22
2023-03-14T02:11:52.138Z,97173.84
2023-03-14T02:14:29.183Z,97149.34
2023-03-14T02:16:55.730Z,97145.91
2023-03-14T02:19:35.289Z,97141.00
2023-03-14T02:22:11.545Z,97139.97
2023-03-14T02:24:44.043Z,97137.56
2023-03-14T02:27:11.756Z,97130.28
2023-03-14T02:29:46.651Z,97124.88
2023-03-14T02:32:14.193Z,97111.78
2023-03-14T02:34:42.462Z,97098.00
2023-03-14T02:37:10.219Z,97105.03
2023-03-14T02:39:40.704Z,97095.38
2023-03-14T02:42:07.354Z,97093.59
2023-03-14T02:44:34.152Z,97085.56
2023-03-14T02:47:00.785Z,97080.41
2023-03-14T02:49:30.452Z,97069.09
2023-03-14T02:51:56.986Z,97077.72
2023-03-14T02:54:23.562Z,97072.84
2023-03-14T02:56:50.050Z,97064.31
2023-03-14T02:59:16.503Z,97063.22
2023-03-14T03:01:43.014Z,97063.28
2023-03-14T03:04:09.532Z,97058.97
2023-03-14T03:06:36.055Z,97057.91
2023-03-14T03:09:02.619Z,97049.31
2023-03-14T03:11:29.195Z,97054.59
2023-03-14T03:13:55.768Z,97041.97
2023-03-14T03:16:22.401Z,97054.84
2023-03-14T03:18:48.940Z,97040.09
2023-03-14T03:21:15.676Z,97029.69
2023-03-14T03:23:42.181Z,97038.34
2023-03-14T03:26:10.580Z,97029.72
2023-03-14T03:28:37.185Z,97030.56
2023-03-14T03:31:11.845Z,97027.91
2023-03-14T03:33:39.741Z,97026.31
2023-03-14T03:36:06.905Z,97012.53
2023-03-14T03:38:33.532Z,97018.91
2023-03-14T03:41:03.681Z,97023.72
2023-03-14T03:43:30.218Z,97017.78
2023-03-14T03:45:56.709Z,97013.28
2023-03-14T03:48:23.208Z,97004.22
2023-03-14T03:50:49.754Z,97008.50
2023-03-14T03:53:26.946Z,97006.72
2023-03-14T03:55:59.167Z,97012.38
2023-03-14T03:58:25.643Z,97001.75
2023-03-14T04:00:52.143Z,96985.66
2023-03-14T04:03:18.796Z,96975.72
2023-03-14T04:05:45.576Z,96980.97
2023-03-14T04:08:12.064Z,96967.56
2023-03-14T04:10:38.636Z,96954.28
2023-03-14T04:13:05.165Z,96962.75
2023-03-14T04:15:31.664Z,96954.03
2023-03-14T04:17:59.862Z,96948.59
2023-03-14T04:20:26.425Z,96957.88
2023-03-14T04:22:53.102Z,96948.06
2023-03-14T04:25:21.009Z,96950.75
2023-03-14T04:27:49.956Z,96936.53
2023-03-14T04:30:17.508Z,96930.91
2023-03-14T04:32:44.027Z,96938.50
2023-03-14T04:35:10.498Z,96940.66
2023-03-14T04:37:37.011Z,96927.41
2023-03-14T04:40:07.187Z,96935.53
2023-03-14T04:42:33.848Z,96926.56
2023-03-14T04:45:01.267Z,96934.34
2023-03-14T04:47:28.071Z,96920.13
2023-03-14T04:49:54.652Z,96910.97
2023-03-14T04:52:21.178Z,96909.28
2023-03-14T04:54:47.697Z,96891.22
2023-03-14T04:57:14.162Z,96896.41
2023-03-14T04:59:40.679Z,96878.91
2023-03-14T05:02:07.331Z,96882.94
2023-03-14T05:04:34.777Z,96866.00
2023-03-14T05:07:01.598Z,96862.97
2023-03-14T05:09:28.169Z,96862.75
2023-03-14T05:11:54.739Z,96863.56
2023-03-14T05:14:21.412Z,96859.72
2023-03-14T05:16:48.012Z,96859.69
2023-03-14T05:19:14.573Z,96849.06
2023-03-14T05:21:41.521Z,96852.97
2023-03-14T05:24:08.202Z,96857.00
2023-03-14T05:26:34.688Z,96845.34
2023-03-14T05:29:01.171Z,96839.97
2023-03-14T05:31:27.800Z,96837.84
2023-03-14T05:33:54.423Z,96828.13
2023-03-14T05:36:20.969Z,96814.78
2023-03-14T05:38:47.436Z,96814.22
2023-03-14T05:41:13.934Z,96817.38
2023-03-14T05:43:41.116Z,96803.91
2023-03-14T05:46:07.715Z,96811.94
2023-03-14T05:48:34.267Z,96817.75
2023-03-14T05:51:00.769Z,96818.28
2023-03-14T05:53:27.407Z,96813.47
2023-03-14T05:55:57.491Z,96809.91
2023-03-14T05:58:24.672Z,96815.41
2023-03-14T06:00:51.983Z,96812.72
2023-03-14T06:03:18.514Z,96816.19
2023-03-14T06:05:45.212Z,96814.38
2023-03-14T06:08:11.779Z,96811.41
2023-03-14T06:10:38.560Z,96806.56
2023-03-14T06:13:05.071Z,96805.50
2023-03-14T06:15:31.666Z,96809.50
2023-03-14T06:17:58.143Z,96798.34
2023-03-14T06:20:24.736Z,96798.13
2023-03-14T06:22:51.216Z,96801.66
2023-03-14T06:25:17.846Z,96799.34
2023-03-14T06:27:44.295Z,96801.00
2023-03-14T06:30:11.487Z,96791.38
2023-03-14T06:32:38.068Z,96795.19
2023-03-14T06:35:05.122Z,96790.81
2023-03-14T06:37:31.665Z,96796.28
2023-03-14T06:39:58.140Z,96797.44
2023-03-14T06:42:24.643Z,96798.31
2023-03-14T06:44:51.141Z,96804.25
2023-03-14T06:47:17.690Z,96795.97
2023-03-14T06:49:44.174Z,96804.94
2023-03-14T06:52:10.654Z,96813.53
2023-03-14T06:54:37.166Z,96808.06
2023-03-14T06:57:03.698Z,96804.03
2023-03-14T06:59:30.178Z,96809.88
2023-03-14T07:01:56.679Z,96811.06
2023-03-14T07:04:23.199Z,96810.78
2023-03-14T07:06:49.807Z,96815.94
2023-03-14T07:09:18.188Z,96810.84
2023-03-14T07:11:44.815Z,96809.97
2023-03-14T07:14:11.696Z,96816.88
2023-03-14T07:16:38.185Z,96825.38
2023-03-14T07:19:04.782Z,96829.09
2023-03-14T07:21:32.956Z,96840.22
2023-03-14T07:23:59.486Z,96837.22
2023-03-14T07:26:26.004Z,96838.72
2023-03-14T07:28:52.475Z,96845.63
2023-03-14T07:31:18.997Z,96852.41
2023-03-14T07:33:45.509Z,96848.84
2023-03-14T07:36:13.335Z,96854.22
2023-03-14T07:38:39.865Z,96854.44
2023-03-14T07:41:07.452Z,96868.25
2023-03-14T07:43:34.478Z,96866.91
2023-03-14T07:46:01.048Z,96862.00
2023-03-14T07:48:28.690Z,96866.91
2023-03-14T07:50:56.364Z,96872.56
2023-03-14T07:53:23.539Z,96873.47
2023-03-14T07:55:52.648Z,96880.44
2023-03-14T07:58:20.130Z,96879.06
2023-03-14T08:00:46.696Z,96886.25
2023-03-14T08:03:13.221Z,96882.88
2023-03-14T08:05:40.912Z,96875.72
2023-03-14T08:08:07.450Z,96882.22
2023-03-14T08:10:34.363Z,96885.19
2023-03-14T08:13:02.355Z,96888.78
2023-03-14T08:15:30.710Z,96883.72
2023-03-14T08:17:57.256Z,96887.31
2023-03-14T08:20:26.621Z,96895.41
2023-03-14T08:22:53.917Z,96892.50
2023-03-14T08:25:20.464Z,96892.94
2023-03-14T08:27:47.020Z,96892.16
2023-03-14T08:30:16.357Z,96892.66
2023-03-14T08:32:42.957Z,96906.16
2023-03-14T08:35:10.740Z,96897.00
2023-03-14T08:37:37.466Z,96909.84
2023-03-14T08:40:09.633Z,96899.44
2023-03-14T08:42:39.439Z,96908.13
2023-03-14T08:45:07.874Z,96907.78
2023-03-14T08:47:34.381Z,96916.78
2023-03-14T08:50:00.974Z,96912.94
2023-03-14T08:52:27.763Z,96919.63
2023-03-14T08:54:54.366Z,96924.25
2023-03-14T08:57:22.874Z,96925.03
2023-03-14T08:59:49.506Z,96925.16
2023-03-14T09:02:15.966Z,96924.25
2023-03-14T09:04:42.520Z,96940.00
2023-03-14T09:07:08.998Z,96941.91
2023-03-14T09:09:35.769Z,96931.19
2023-03-14T09:12:02.368Z,96951.44
2023-03-14T09:14:29.846Z,96940.59
2023-03-14T09:16:56.531Z,96931.31
2023-03-14T09:19:23.181Z,96946.69
2023-03-14T09:21:49.817Z,96937.09
2023-03-14T09:24:17.842Z,96953.03
2023-03-14T09:26:44.501Z,96961.41
2023-03-14T09:29:11.038Z,96968.88
2023-03-14T09:31:37.785Z,96963.88
2023-03-14T09:34:04.850Z,96975.28
2023-03-14T09:36:31.765Z,96975.72
2023-03-14T09:38:58.398Z,96981.22
2023-03-14T09:41:30.718Z,96982.38
2023-03-14T09:44:17.829Z,96986.84
2023-03-14T09:46:49.993Z,96998.72
2023-03-14T09:49:35.343Z,97003.84
2023-03-14T09:52:06.245Z,97012.75
2023-03-14T09:54:44.238Z,97002.63
2023-03-14T09:57:17.881Z,97026.91
2023-03-14T09:59:46.202Z,97018.88
2023-03-14T10:02:22.554Z,97032.88
2023-03-14T10:04:51.636Z,97039.91
2023-03-14T10:07:22.853Z,97040.53
2023-03-14T10:09:51.938Z,97052.06
2023-03-14T10:12:19.795Z,97058.75
2023-03-14T10:14:53.400Z,97056.44
2023-03-14T10:17:21.290Z,97064.59
2023-03-14T10:20:00.151Z,97064.75
2023-03-14T10:22:33.638Z,97065.31
2023-03-14T10:25:08.325Z,97072.97
2023-03-14T10:27:36.687Z,97075.75
2023-03-14T10:30:15.180Z,97083.84
2023-03-14T10:32:47.132Z,97097.25
2023-03-14T10:35:16.747Z,97103.66
2023-03-14T10:37:58.649Z,97116.75
2023-03-14T10:40:49.929Z,97128.13
2023-03-14T10:43:20.950Z,97142.16
2023-03-14T10:45:58.742Z,97139.81
2023-03-14T10:48:37.963Z,97144.38
2023-03-14T10:51:11.941Z,97164.53
2023-03-14T10:53:50.829Z,97171.78
2023-03-14T10:56:22.587Z,97183.59
2023-03-14T10:58:53.598Z,97186.81
2023-03-14T11:01:44.986Z,97198.38
2023-03-14T11:04:38.999Z,97202.38
2023-03-14T11:07:08.233Z,97217.13
2023-03-14T11:09:49.709Z,97215.53
2023-03-14T11:12:34.972Z,97226.78
2023-03-14T11:15:10.654Z,97229.75
2023-03-14T11:17:47.444Z,97242.59
2023-03-14T11:20:32.510Z,97254.94
2023-03-14T11:23:17.197Z,97274.53
2023-03-14T11:26:07.201Z,97283.38
2023-03-14T11:28:45.023Z,97300.00
2023-03-14T11:31:21.798Z,97301.81
2023-03-14T11:34:00.364Z,97317.38
2023-03-14T11:36:44.114Z,97332.44
2023-03-14T11:39:20.945Z,97337.03
2023-03-14T11:41:53.884Z,97337.63
2023-03-14T11:44:29.325Z,97347.84
2023-03-14T11:47:14.196Z,97368.28
2023-03-14T11:49:53.542Z,97380.63
2023-03-14T11:52:20.132Z,97380.09
2023-03-14T11:54:57.468Z,97387.59
2023-03-14T11:57:24.951Z,97394.56
2023-03-14T12:00:00.771Z,97401.81
2023-03-14T12:02:36.168Z,97405.31
2023-03-14T12:05:27.027Z,97402.66
2023-03-14T12:08:09.167Z,97430.59
2023-03-14T12:10:44.511Z,97435.41
2023-03-14T12:13:13.790Z,97450.47
2023-03-14T12:15:47.211Z,97460.88
2023-03-14T12:18:28.447Z,97476.13
2023-03-14T12:20:58.557Z,97492.50
2023-03-14T12:23:27.406Z,97496.50
2023-03-14T12:26:15.156Z,97521.69
2023-03-14T12:28:51.441Z,97519.06
2023-03-14T12:31:33.151Z,97534.63
2023-03-14T12:34:12.592Z,97550.63
2023-03-14T12:36:51.142Z,97564.88
2023-03-14T12:39:36.895Z,97581.53
2023-03-14T12:42:12.386Z,97605.75
2023-03-14T12:44:52.233Z,97603.66
2023-03-14T12:47:18.705Z,97608.00
2023-03-14T12:49:47.193Z,97601.53
2023-03-14T12:52:21.266Z,97610.00
2023-03-14T12:54:53.882Z,97605.41
2023-03-14T12:57:35.026Z,97601.59
2023-03-14T13:00:19.624Z,97598.53
2023-03-14T13:02:48.954Z,97606.63
2023-03-14T13:05:25.677Z,97595.75
2023-03-14T13:07:55.725Z,97600.19
2023-03-14T13:10:23.774Z,97598.91
2023-03-14T13:13:21.415Z,97608.59
2023-03-14T13:15:52.781Z,97606.63
2023-03-14T13:18:29.713Z,97599.47
2023-03-14T13:21:20.759Z,97609.53
2023-03-14T13:24:00.666Z,97602.66
2023-03-14T13:26:36.061Z,97596.00
2023-03-14T13:29:17.172Z,97602.81
2023-03-14T13:31:49.032Z,97614.38
2023-03-14T13:34:16.119Z,97618.16
2023-03-14T13:36:42.700Z,97618.09
2023-03-14T13:39:19.918Z,97618.63
2023-03-14T13:41:47.783Z,97624.00
2023-03-14T13:44:18.536Z,97631.53
2023-03-14T13:46:45.187Z,97632.63
2023-03-14T13:49:19.832Z,97632.31
2023-03-14T13:51:46.359Z,97638.81
2023-03-14T13:54:16.332Z,97649.56
2023-03-14T13:56:42.956Z,97647.19
2023-03-14T13:59:25.431Z,97652.56
2023-03-14T14:01:53.793Z,97653.66
2023-03-14T14:04:24.175Z,97661.19
2023-03-14T14:06:55.573Z,97660.41
2023-03-14T14:09:31.903Z,97658.53
2023-03-14T14:12:16.437Z,97656.97
2023-03-14T14:14:50.903Z,97650.00
2023-03-14T14:17:22.062Z,97658.06
2023-03-14T14:19:49.419Z,97656.19
2023-03-14T14:22:16.124Z,97654.28
2023-03-14T14:24:43.023Z,97658.06
2023-03-14T14:27:15.598Z,97652.69
2023-03-14T14:29:42.492Z,97658.34
2023-03-14T14:32:09.226Z,97654.00
2023-03-14T14:34:43.638Z,97657.81
2023-03-14T14:37:22.424Z,97651.09
2023-03-14T14:39:51.617Z,97658.31
2023-03-14T14:42:23.112Z,97644.28
2023-03-14T14:44:52.427Z,97641.06
2023-03-14T14:47:22.177Z,97654.25
2023-03-14T14:49:50.334Z,97644.59
2023-03-14T14:52:21.568Z,97644.56
2023-03-14T14:54:58.884Z,97653.16
2023-03-14T14:57:54.851Z,97652.34
2023-03-14T15:00:24.753Z,97638.41
2023-03-14T15:02:55.494Z,97638.66
2023-03-14T15:05:25.277Z,97633.31
2023-03-14T15:07:52.253Z,97633.31
2023-03-14T15:10:21.958Z,97634.66
2023-03-14T15:12:48.646Z,97639.78
2023-03-14T15:15:15.991Z,97631.44
2023-03-14T15:17:42.467Z,97629.53
2023-03-14T15:20:15.723Z,97634.38
2023-03-14T15:22:42.929Z,97638.69
2023-03-14T15:25:18.736Z,97638.69
2023-03-14T15:27:49.060Z,97634.94
2023-03-14T15:30:17.032Z,97630.06
2023-03-14T15:32:43.532Z,97631.97
2023-03-14T15:35:10.628Z,97637.63
2023-03-14T15:37:37.198Z,97642.44
2023-03-14T15:40:12.740Z,97633.88
2023-03-14T15:42:39.300Z,97635.19
2023-03-14T15:45:06.427Z,97642.44
2023-03-14T15:47:33.354Z,97645.69
2023-03-14T15:49:59.970Z,97651.56
2023-03-14T15:52:26.481Z,97656.66
2023-03-14T15:54:53.002Z,97663.09
2023-03-14T15:57:19.513Z,97665.00
2023-03-14T15:59:46.100Z,97658.25
2023-03-14T16:02:12.632Z,97655.78
2023-03-14T16:04:39.209Z,97653.88
2023-03-14T16:07:05.793Z,97664.81
2023-03-14T16:09:32.386Z,97665.59
2023-03-14T16:11:58.990Z,97668.22
2023-03-14T16:14:25.584Z,97676.75
2023-03-14T16:16:54.149Z,97682.94
2023-03-14T16:19:20.732Z,97688.28
2023-03-14T16:21:47.239Z,97689.81
2023-03-14T16:24:13.729Z,97699.31
2023-03-14T16:26:40.237Z,97704.94
2023-03-14T16:29:06.717Z,97706.56
2023-03-14T16:31:33.575Z,97702.19
2023-03-14T16:34:03.821Z,97707.56
2023-03-14T16:36:30.386Z,97708.72
2023-03-14T16:38:56.904Z,97709.28
2023-03-14T16:41:23.612Z,97713.28
2023-03-14T16:43:52.306Z,97716.28
2023-03-14T16:46:19.480Z,97727.69
2023-03-14T16:48:46.769Z,97725.47
2023-03-14T16:51:16.340Z,97740.81
2023-03-14T16:53:43.855Z,97749.59
2023-03-14T16:56:10.951Z,97751.72
2023-03-14T16:58:38.176Z,97761.47
2023-03-14T17:01:11.828Z,97763.84
2023-03-14T17:03:43.533Z,97767.03
2023-03-14T17:06:16.086Z,97760.25
2023-03-14T17:08:43.040Z,97763.63
2023-03-14T17:11:09.812Z,97759.66
2023-03-14T17:13:37.103Z,97777.94
2023-03-14T17:16:04.003Z,97779.06
2023-03-14T17:18:31.544Z,97780.31
2023-03-14T17:20:59.411Z,97783.28
2023-03-14T17:23:28.126Z,97789.22
2023-03-14T17:25:55.102Z,97800.94
2023-03-14T17:28:22.905Z,97811.19
2023-03-14T17:30:49.772Z,97809.47
2023-03-14T17:33:16.962Z,97814.28
2023-03-14T17:35:44.115Z,97815.03
2023-03-14T17:38:10.738Z,97818.78
2023-03-14T17:40:37.361Z,97828.34
2023-03-14T17:43:03.850Z,97829.78
2023-03-14T17:45:30.345Z,97828.88
2023-03-14T17:47:56.848Z,97835.38
2023-03-14T17:50:23.338Z,97844.88
2023-03-14T17:52:49.841Z,97843.38
2023-03-14T17:55:16.477Z,97848.72
2023-03-14T17:57:44.866Z,97856.50
2023-03-14T18:00:12.665Z,97858.59
2023-03-14T18:02:41.396Z,97861.00
2023-03-14T18:05:09.083Z,97875.91
2023-03-14T18:07:36.316Z,97886.47
2023-03-14T18:10:04.023Z,97898.00
2023-03-14T18:12:30.772Z,97894.41
2023-03-14T18:14:57.344Z,97895.19
2023-03-14T18:17:23.987Z,97896.41
2023-03-14T18:19:50.517Z,97904.56
2023-03-14T18:22:17.018Z,97915.59
2023-03-14T18:24:43.509Z,97922.00
2023-03-14T18:27:10.003Z,97920.81
2023-03-14T18:29:36.964Z,97937.59
2023-03-14T18:32:03.466Z,97936.88
2023-03-14T18:34:29.925Z,97931.47
2023-03-14T18:36:56.370Z,97941.09
2023-03-14T18:39:22.895Z,97932.72
2023-03-14T18:41:49.462Z,97930.03
2023-03-14T18:44:16.067Z,97936.19
2023-03-14T18:46:42.699Z,97938.06
2023-03-14T18:49:10.637Z,97933.53
2023-03-14T18:51:37.370Z,97936.66
2023-03-14T18:54:09.872Z,97946.31
2023-03-14T18:56:37.564Z,97941.44
2023-03-14T18:59:04.132Z,97939.22
2023-03-14T19:01:31.529Z,97952.22
2023-03-14T19:04:02.751Z,97945.94
2023-03-14T19:06:33.392Z,97948.53
2023-03-14T19:09:05.893Z,97947.50
2023-03-14T19:11:32.478Z,97962.13
2023-03-14T19:13:59.972Z,97956.91
2023-03-14T19:16:26.831Z,97955.75
2023-03-14T19:18:55.423Z,97955.03
2023-03-14T19:21:31.812Z,97951.78
2023-03-14T19:23:59.080Z,97950.50
2023-03-14T19:26:25.847Z,97959.44
2023-03-14T19:28:55.118Z,97970.38
2023-03-14T19:31:21.886Z,97971.09
2023-03-14T19:33:48.812Z,97967.56
2023-03-14T19:36:27.433Z,97975.69
2023-03-14T19:38:54.318Z,97983.03
2023-03-14T19:41:22.878Z,97989.19
2023-03-14T19:43:49.872Z,97984.97
2023-03-14T19:46:16.898Z,97994.53
2023-03-14T19:48:45.446Z,97984.38
2023-03-14T19:51:13.013Z,97994.72
2023-03-14T19:53:39.587Z,97999.13
2023-03-14T19:56:08.380Z,97997.72
2023-03-14T19:58:35.533Z,98006.91
2023-03-14T20:01:02.511Z,98002.69
2023-03-14T20:03:29.410Z,98016.06
2023-03-14T20:05:55.985Z,98025.63
2023-03-14T20:08:23.391Z,98026.91
2023-03-14T20:10:50.627Z,98032.34
2023-03-14T20:13:22.598Z,98033.06
2023-03-14T20:15:49.752Z,98039.13
2023-03-14T20:18:16.365Z,98038.47
2023-03-14T20:20:42.907Z,98033.00
2023-03-14T20:23:09.888Z,98043.34
2023-03-14T20:25:37.713Z,98046.63
2023-03-14T20:28:05.190Z,98052.44
2023-03-14T20:30:32.436Z,98053.22
2023-03-14T20:32:59.057Z,98064.25
2023-03-14T20:35:25.772Z,98067.28
2023-03-14T20:37:54.172Z,98070.44
2023-03-14T20:40:21.031Z,98073.13
2023-03-14T20:42:47.528Z,98067.41
2023-03-14T20:45:14.246Z,98076.47
2023-03-14T20:47:41.296Z,98072.53
2023-03-14T20:50:09.738Z,98075.78
2023-03-14T20:52:36.302Z,98071.72
2023-03-14T20:55:03.733Z,98068.78
2023-03-14T20:57:30.246Z,98091.78
2023-03-14T20:59:56.888Z,98079.69
2023-03-14T21:05:08.166Z,98075.41
2023-03-14T21:07:41.128Z,98083.88
2023-03-14T21:10:12.145Z,98074.22
2023-03-14T21:12:38.751Z,98079.09
2023-03-14T21:15:06.780Z,98088.16
2023-03-14T21:17:33.690Z,98093.97
2023-03-14T21:20:00.478Z,98092.25
2023-03-14T21:22:27.914Z,98093.72
2023-03-14T21:24:54.339Z,98096.31
2023-03-14T21:27:21.567Z,98095.25
2023-03-14T21:29:48.110Z,98096.50
2023-03-14T21:32:14.605Z,98104.66
2023-03-14T21:34:41.031Z,98097.25
2023-03-14T21:37:07.510Z,98103.38
2023-03-14T21:39:33.948Z,98108.41
2023-03-14T21:42:00.366Z,98102.00
2023-03-14T21:44:26.813Z,98108.47
2023-03-14T21:46:53.265Z,98121.38
2023-03-14T21:49:19.726Z,98116.84
2023-03-14T21:51:46.265Z,98126.84
2023-03-14T21:54:16.864Z,98137.31
2023-03-14T21:56:44.042Z,98133.19
2023-03-14T21:59:11.429Z,98140.56
2023-03-14T22:01:38.246Z,98131.13
2023-03-14T22:04:04.747Z,98137.97
2023-03-14T22:06:31.233Z,98142.97
2023-03-14T22:08:57.865Z,98145.13
2023-03-14T22:11:24.724Z,98156.25
2023-03-14T22:13:51.161Z,98157.94
2023-03-14T22:16:17.706Z,98161.72
2023-03-14T22:18:45.436Z,98158.75
2023-03-14T22:21:11.937Z,98163.44
2023-03-14T22:23:38.374Z,98166.84
2023-03-14T22:26:05.068Z,98177.91
2023-03-14T22:28:31.458Z,98165.88
2023-03-14T22:30:57.901Z,98165.88
2023-03-14T22:33:24.385Z,98179.66
2023-03-14T22:35:53.158Z,98175.31
2023-03-14T22:38:20.181Z,98185.75
2023-03-14T22:40:47.019Z,98187.22
2023-03-14T22:43:13.483Z,98200.56
2023-03-14T22:45:40.008Z,98212.13
2023-03-14T22:48:06.553Z,98212.75
2023-03-14T22:50:32.977Z,98221.66
2023-03-14T22:52:59.396Z,98215.25
2023-03-14T22:55:26.197Z,98219.41
2023-03-14T22:57:53.597Z,98224.53
2023-03-14T23:00:21.018Z,98227.66
2023-03-14T23:02:47.792Z,98228.63
2023-03-14T23:05:14.292Z,98246.19
2023-03-14T23:07:40.969Z,98246.25
2023-03-14T23:10:08.571Z,98239.69
2023-03-14T23:12:35.442Z,98246.47
2023-03-14T23:15:01.875Z,98247.06
2023-03-14T23:17:28.313Z,98257.28
2023-03-14T23:19:54.794Z,98265.28
2023-03-14T23:22:21.343Z,98273.34
2023-03-14T23:24:48.686Z,98265.13
2023-03-14T23:27:16.817Z,98273.41
2023-03-14T23:29:46.262Z,98278.75
2023-03-14T23:32:15.262Z,98284.47
2023-03-14T23:34:43.173Z,98282.00
2023-03-14T23:37:13.719Z,98286.09
2023-03-14T23:39:41.391Z,98286.31
2023-03-14T23:42:08.169Z,98281.22
2023-03-14T23:44:34.764Z,98291.78
2023-03-14T23:47:01.228Z,98287.94
2023-03-14T23:49:27.836Z,98295.59
2023-03-14T23:51:54.282Z,98288.56
2023-03-14T23:54:20.691Z,98297.22
2023-03-14T23:56:47.124Z,98296.09
2023-03-14T23:59:13.586Z,98303.72
